sensor_id;sensor_type;location;lat;lon;timestamp;pressure;altitude;pressure_sealevel;temperature;humidity
77517;BME280;68414;53.946;27.634;2023-07-29T00:00:34;97976.046875;;;17.200001;75.125977
77517;BME280;68414;53.946;27.634;2023-07-29T00:01:34;97977.117188;;;17.290001;74.868164
77517;BME280;68414;53.946;27.634;2023-07-29T00:02:34;97974.640625;;;17.350000;74.570312
77517;BME280;68414;53.946;27.634;2023-07-29T00:03:34;97970.484375;;;17.200001;75.477539
77517;BME280;68414;53.946;27.634;2023-07-29T00:04:34;97964.179688;;;17.160000;75.866211
77517;BME280;68414;53.946;27.634;2023-07-29T00:05:34;97974.125000;;;17.170000;75.944336
77517;BME280;68414;53.946;27.634;2023-07-29T00:06:34;97971.218750;;;17.240000;75.780273
77517;BME280;68414;53.946;27.634;2023-07-29T00:07:34;97956.890625;;;17.250000;75.829102
77517;BME280;68414;53.946;27.634;2023-07-29T00:08:34;97958.789062;;;17.320000;75.827148
77517;BME280;68414;53.946;27.634;2023-07-29T00:09:34;97957.164062;;;17.340000;75.250000
77517;BME280;68414;53.946;27.634;2023-07-29T00:11:34;97957.093750;;;17.379999;74.859375
77517;BME280;68414;53.946;27.634;2023-07-29T00:12:34;97955.046875;;;17.420000;75.020508
77517;BME280;68414;53.946;27.634;2023-07-29T00:13:34;97951.890625;;;17.400000;75.083984
77517;BME280;68414;53.946;27.634;2023-07-29T00:14:34;97953.093750;;;17.389999;74.983398
77517;BME280;68414;53.946;27.634;2023-07-29T00:15:34;97957.929688;;;17.350000;75.350586
77517;BME280;68414;53.946;27.634;2023-07-29T00:16:34;97955.140625;;;17.350000;75.515625
77517;BME280;68414;53.946;27.634;2023-07-29T00:17:34;97945.859375;;;17.450001;75.125000
77517;BME280;68414;53.946;27.634;2023-07-29T00:18:34;97959.453125;;;17.389999;75.237305
77517;BME280;68414;53.946;27.634;2023-07-29T00:19:34;97952.890625;;;17.260000;75.916992
77517;BME280;68414;53.946;27.634;2023-07-29T00:20:34;97958.515625;;;17.230000;75.659180
77517;BME280;68414;53.946;27.634;2023-07-29T00:21:34;97954.906250;;;17.260000;76.070312
77517;BME280;68414;53.946;27.634;2023-07-29T00:22:34;97956.101562;;;17.250000;75.772461
77517;BME280;68414;53.946;27.634;2023-07-29T00:23:34;97953.687500;;;17.270000;76.005859
77517;BME280;68414;53.946;27.634;2023-07-29T00:24:34;97956.468750;;;17.270000;75.863281
77517;BME280;68414;53.946;27.634;2023-07-29T00:25:34;97953.687500;;;17.270000;76.160156
77517;BME280;68414;53.946;27.634;2023-07-29T00:26:34;97958.296875;;;17.370001;76.221680
77517;BME280;68414;53.946;27.634;2023-07-29T00:27:34;97949.796875;;;17.480000;75.239258
77517;BME280;68414;53.946;27.634;2023-07-29T00:28:34;97955.265625;;;17.549999;74.183594
77517;BME280;68414;53.946;27.634;2023-07-29T00:29:34;97956.859375;;;17.559999;73.538086
77517;BME280;68414;53.946;27.634;2023-07-29T00:30:34;97960.187500;;;17.430000;73.715820
77517;BME280;68414;53.946;27.634;2023-07-29T00:31:34;97954.312500;;;17.379999;74.595703
77517;BME280;68414;53.946;27.634;2023-07-29T00:32:34;97947.914062;;;17.410000;74.360352
77517;BME280;68414;53.946;27.634;2023-07-29T00:33:34;97951.953125;;;17.360001;74.681641
77517;BME280;68414;53.946;27.634;2023-07-29T00:34:34;97946.625000;;;17.450001;73.224609
77517;BME280;68414;53.946;27.634;2023-07-29T00:35:34;97949.007812;;;17.469999;73.214844
77517;BME280;68414;53.946;27.634;2023-07-29T00:36:34;97944.695312;;;17.420000;73.955078
77517;BME280;68414;53.946;27.634;2023-07-29T00:37:34;97936.875000;;;17.340000;73.347656
77517;BME280;68414;53.946;27.634;2023-07-29T00:38:34;97937.804688;;;17.240000;73.934570
77517;BME280;68414;53.946;27.634;2023-07-29T00:39:34;97945.328125;;;17.270000;74.303711
77517;BME280;68414;53.946;27.634;2023-07-29T00:40:35;97941.085938;;;17.190001;74.916016
77517;BME280;68414;53.946;27.634;2023-07-29T00:41:34;97944.171875;;;17.240000;74.463867
77517;BME280;68414;53.946;27.634;2023-07-29T00:42:34;97949.007812;;;17.200001;74.073242
77517;BME280;68414;53.946;27.634;2023-07-29T00:43:34;97945.062500;;;17.180000;74.453125
77517;BME280;68414;53.946;27.634;2023-07-29T00:44:34;97941.484375;;;17.170000;73.946289
77517;BME280;68414;53.946;27.634;2023-07-29T00:45:34;97940.718750;;;17.170000;74.209961
77517;BME280;68414;53.946;27.634;2023-07-29T00:46:34;97944.234375;;;17.209999;74.469727
77517;BME280;68414;53.946;27.634;2023-07-29T00:47:34;97942.078125;;;17.320000;74.037109
77517;BME280;68414;53.946;27.634;2023-07-29T00:48:34;97942.875000;;;17.320000;74.027344
77517;BME280;68414;53.946;27.634;2023-07-29T00:49:34;97936.515625;;;17.320000;74.058594
77517;BME280;68414;53.946;27.634;2023-07-29T00:50:34;97933.656250;;;17.350000;73.921875
77517;BME280;68414;53.946;27.634;2023-07-29T00:51:34;97935.546875;;;17.420000;73.294922
77517;BME280;68414;53.946;27.634;2023-07-29T00:52:34;97940.328125;;;17.410000;72.316406
77517;BME280;68414;53.946;27.634;2023-07-29T00:53:34;97935.117188;;;17.430000;72.792969
77517;BME280;68414;53.946;27.634;2023-07-29T00:54:34;97936.015625;;;17.370001;72.903320
77517;BME280;68414;53.946;27.634;2023-07-29T00:55:34;97935.453125;;;17.219999;73.582031
77517;BME280;68414;53.946;27.634;2023-07-29T00:56:34;97933.195312;;;17.139999;74.490234
77517;BME280;68414;53.946;27.634;2023-07-29T00:57:34;97937.203125;;;17.129999;74.785156
77517;BME280;68414;53.946;27.634;2023-07-29T00:58:34;97930.500000;;;17.070000;74.764648
77517;BME280;68414;53.946;27.634;2023-07-29T00:59:35;97927.781250;;;17.030001;75.196289
77517;BME280;68414;53.946;27.634;2023-07-29T01:00:34;97941.765625;;;17.000000;75.411133
77517;BME280;68414;53.946;27.634;2023-07-29T01:01:34;97934.695312;;;16.920000;75.781250
77517;BME280;68414;53.946;27.634;2023-07-29T01:02:34;97935.437500;;;16.959999;75.864258
77517;BME280;68414;53.946;27.634;2023-07-29T01:03:34;97933.656250;;;17.090000;75.537109
77517;BME280;68414;53.946;27.634;2023-07-29T01:04:34;97935.250000;;;17.100000;75.799805
77517;BME280;68414;53.946;27.634;2023-07-29T01:06:39;97939.343750;;;17.020000;75.841797
77517;BME280;68414;53.946;27.634;2023-07-29T01:11:38;97940.906250;;;17.030001;76.128906
77517;BME280;68414;53.946;27.634;2023-07-29T01:16:36;97933.781250;;;17.020000;75.820312
77517;BME280;68414;53.946;27.634;2023-07-29T01:17:36;97926.984375;;;17.030001;75.349609
77517;BME280;68414;53.946;27.634;2023-07-29T01:18:35;97928.578125;;;17.040001;75.636719
77517;BME280;68414;53.946;27.634;2023-07-29T01:19:41;97925.640625;;;17.139999;75.819336
77517;BME280;68414;53.946;27.634;2023-07-29T01:20:35;97923.953125;;;17.200001;75.094727
77517;BME280;68414;53.946;27.634;2023-07-29T01:21:35;97919.078125;;;17.280001;74.755859
77517;BME280;68414;53.946;27.634;2023-07-29T01:22:34;97922.390625;;;17.190001;74.895508
77517;BME280;68414;53.946;27.634;2023-07-29T01:23:34;97924.906250;;;17.100000;75.713867
77517;BME280;68414;53.946;27.634;2023-07-29T01:24:34;97915.765625;;;17.100000;76.239258
77517;BME280;68414;53.946;27.634;2023-07-29T01:25:34;97919.546875;;;17.230000;75.780273
77517;BME280;68414;53.946;27.634;2023-07-29T01:26:34;97913.546875;;;17.240000;74.991211
77517;BME280;68414;53.946;27.634;2023-07-29T01:27:34;97914.234375;;;17.320000;75.003906
77517;BME280;68414;53.946;27.634;2023-07-29T01:28:34;97923.312500;;;17.360001;75.152344
77517;BME280;68414;53.946;27.634;2023-07-29T01:29:34;97912.000000;;;17.469999;74.193359
77517;BME280;68414;53.946;27.634;2023-07-29T01:30:37;97916.421875;;;17.440001;73.430664
77517;BME280;68414;53.946;27.634;2023-07-29T01:31:34;97912.546875;;;17.379999;74.419922
77517;BME280;68414;53.946;27.634;2023-07-29T01:33:35;97918.007812;;;17.450001;73.354492
77517;BME280;68414;53.946;27.634;2023-07-29T01:36:34;97916.890625;;;17.389999;73.456055
77517;BME280;68414;53.946;27.634;2023-07-29T01:37:34;97913.375000;;;17.350000;74.383789
77517;BME280;68414;53.946;27.634;2023-07-29T01:38:35;97919.671875;;;17.389999;74.301758
77517;BME280;68414;53.946;27.634;2023-07-29T01:39:34;97919.671875;;;17.389999;74.840820
77517;BME280;68414;53.946;27.634;2023-07-29T01:40:34;97914.062500;;;17.420000;74.823242
77517;BME280;68414;53.946;27.634;2023-07-29T01:41:34;97917.382812;;;17.340000;75.281250
77517;BME280;68414;53.946;27.634;2023-07-29T01:42:34;97913.609375;;;17.209999;76.238281
77517;BME280;68414;53.946;27.634;2023-07-29T01:43:34;97915.500000;;;17.270000;76.161133
77517;BME280;68414;53.946;27.634;2023-07-29T01:44:34;97921.859375;;;17.280001;75.809570
77517;BME280;68414;53.946;27.634;2023-07-29T01:45:34;97921.890625;;;17.240000;75.649414
77517;BME280;68414;53.946;27.634;2023-07-29T01:46:34;97911.484375;;;17.280001;75.700195
77517;BME280;68414;53.946;27.634;2023-07-29T01:47:34;97910.125000;;;17.400000;75.083984
77517;BME280;68414;53.946;27.634;2023-07-29T01:48:34;97908.531250;;;17.389999;74.324219
77517;BME280;68414;53.946;27.634;2023-07-29T01:49:34;97914.359375;;;17.480000;74.196289
77517;BME280;68414;53.946;27.634;2023-07-29T01:50:34;97910.054688;;;17.430000;74.409180
77517;BME280;68414;53.946;27.634;2023-07-29T01:51:34;97917.640625;;;17.430000;74.505859
77517;BME280;68414;53.946;27.634;2023-07-29T01:52:34;97907.593750;;;17.490000;74.626953
77517;BME280;68414;53.946;27.634;2023-07-29T01:53:34;97910.375000;;;17.490000;75.066406
77517;BME280;68414;53.946;27.634;2023-07-29T01:54:34;97918.835938;;;17.420000;75.559570
77517;BME280;68414;53.946;27.634;2023-07-29T01:55:34;97918.546875;;;17.360001;76.077148
77517;BME280;68414;53.946;27.634;2023-07-29T01:56:34;97918.179688;;;17.340000;75.337891
77517;BME280;68414;53.946;27.634;2023-07-29T01:57:34;97916.953125;;;17.350000;75.130859
77517;BME280;68414;53.946;27.634;2023-07-29T01:58:34;97910.226562;;;17.330000;75.345703
77517;BME280;68414;53.946;27.634;2023-07-29T01:59:34;97921.890625;;;17.240000;75.693359
77517;BME280;68414;53.946;27.634;2023-07-29T02:00:34;97905.718750;;;17.160000;76.546875
77517;BME280;68414;53.946;27.634;2023-07-29T02:01:34;97918.078125;;;17.150000;76.666016
77517;BME280;68414;53.946;27.634;2023-07-29T02:02:34;97920.007812;;;17.180000;77.219727
77517;BME280;68414;53.946;27.634;2023-07-29T02:03:34;97924.781250;;;17.170000;76.658203
77517;BME280;68414;53.946;27.634;2023-07-29T02:04:34;97925.203125;;;17.160000;77.490234
77517;BME280;68414;53.946;27.634;2023-07-29T02:05:34;97915.531250;;;17.240000;76.746094
77517;BME280;68414;53.946;27.634;2023-07-29T02:06:34;97921.359375;;;17.330000;76.300781
77517;BME280;68414;53.946;27.634;2023-07-29T02:07:34;97915.062500;;;17.290001;76.196289
77517;BME280;68414;53.946;27.634;2023-07-29T02:08:34;97920.703125;;;17.250000;76.575195
77517;BME280;68414;53.946;27.634;2023-07-29T02:09:34;97911.484375;;;17.280001;75.974609
77517;BME280;68414;53.946;27.634;2023-07-29T02:10:34;97917.382812;;;17.340000;75.457031
77517;BME280;68414;53.946;27.634;2023-07-29T02:11:34;97921.687500;;;17.379999;76.036133
77517;BME280;68414;53.946;27.634;2023-07-29T02:12:34;97919.734375;;;17.350000;76.108398
77517;BME280;68414;53.946;27.634;2023-07-29T02:13:34;97911.093750;;;17.299999;76.000000
77517;BME280;68414;53.946;27.634;2023-07-29T02:14:34;97914.703125;;;17.270000;76.291992
77517;BME280;68414;53.946;27.634;2023-07-29T02:15:34;97911.093750;;;17.299999;75.659180
77517;BME280;68414;53.946;27.634;2023-07-29T02:16:34;97917.187500;;;17.209999;75.733398
77517;BME280;68414;53.946;27.634;2023-07-29T02:17:34;97921.531250;;;17.219999;76.371094
77517;BME280;68414;53.946;27.634;2023-07-29T02:18:34;97918.906250;;;17.120001;76.738281
77517;BME280;68414;53.946;27.634;2023-07-29T02:19:34;97925.375000;;;17.320000;76.289062
77517;BME280;68414;53.946;27.634;2023-07-29T02:20:34;97916.890625;;;17.389999;75.795898
77517;BME280;68414;53.946;27.634;2023-07-29T02:21:34;97923.210938;;;17.430000;75.484375
77517;BME280;68414;53.946;27.634;2023-07-29T02:22:34;97934.023438;;;17.370001;76.177734
77517;BME280;68414;53.946;27.634;2023-07-29T02:23:34;97924.148438;;;17.330000;76.750977
77517;BME280;68414;53.946;27.634;2023-07-29T02:24:34;97922.523438;;;17.350000;76.338867
77517;BME280;68414;53.946;27.634;2023-07-29T02:26:34;97928.140625;;;17.590000;74.807617
77517;BME280;68414;53.946;27.634;2023-07-29T02:27:34;97931.421875;;;17.540001;74.909180
77517;BME280;68414;53.946;27.634;2023-07-29T02:28:34;97932.656250;;;17.490000;75.693359
77517;BME280;68414;53.946;27.634;2023-07-29T02:29:34;97932.945312;;;17.580000;75.027344
77517;BME280;68414;53.946;27.634;2023-07-29T02:30:34;97931.281250;;;17.610001;74.887695
77517;BME280;68414;53.946;27.634;2023-07-29T02:31:34;97932.875000;;;17.620001;75.141602
77517;BME280;68414;53.946;27.634;2023-07-29T02:32:34;97935.953125;;;17.670000;74.810547
77517;BME280;68414;53.946;27.634;2023-07-29T02:33:34;97936.132812;;;17.570000;75.397461
77517;BME280;68414;53.946;27.634;2023-07-29T02:34:34;97934.250000;;;17.500000;75.496094
77517;BME280;68414;53.946;27.634;2023-07-29T02:35:34;97937.718750;;;17.580000;75.355469
77517;BME280;68414;53.946;27.634;2023-07-29T02:36:34;97941.664062;;;17.600000;75.206055
77517;BME280;68414;53.946;27.634;2023-07-29T02:37:34;97945.000000;;;17.480000;75.668945
77517;BME280;68414;53.946;27.634;2023-07-29T02:38:34;97946.750000;;;17.379999;76.530273
77517;BME280;68414;53.946;27.634;2023-07-29T02:39:34;97931.500000;;;17.469999;76.237305
77517;BME280;68414;53.946;27.634;2023-07-29T02:40:34;97940.976562;;;17.530001;76.169922
77517;BME280;68414;53.946;27.634;2023-07-29T02:41:34;97936.773438;;;17.410000;76.458008
77517;BME280;68414;53.946;27.634;2023-07-29T02:42:34;97941.953125;;;17.389999;77.059570
77517;BME280;68414;53.946;27.634;2023-07-29T02:43:34;97940.140625;;;17.559999;76.208984
77517;BME280;68414;53.946;27.634;2023-07-29T02:44:34;97943.656250;;;17.600000;76.358398
77517;BME280;68414;53.946;27.634;2023-07-29T02:45:34;97940.437500;;;17.610001;75.877930
77517;BME280;68414;53.946;27.634;2023-07-29T02:46:34;97935.953125;;;17.670000;75.502930
77517;BME280;68414;53.946;27.634;2023-07-29T02:47:34;97940.796875;;;17.629999;76.024414
77517;BME280;68414;53.946;27.634;2023-07-29T02:48:34;97943.585938;;;17.629999;75.453125
77517;BME280;68414;53.946;27.634;2023-07-29T02:49:34;97943.398438;;;17.510000;75.947266
77517;BME280;68414;53.946;27.634;2023-07-29T02:50:34;97942.609375;;;17.500000;76.177734
77517;BME280;68414;53.946;27.634;2023-07-29T02:51:34;97946.546875;;;17.530001;76.224609
77517;BME280;68414;53.946;27.634;2023-07-29T02:52:34;97942.562500;;;17.540001;75.876953
77517;BME280;68414;53.946;27.634;2023-07-29T02:53:34;97942.562500;;;17.540001;76.008789
77517;BME280;68414;53.946;27.634;2023-07-29T02:54:34;97944.593750;;;17.500000;76.330078
77517;BME280;68414;53.946;27.634;2023-07-29T02:55:34;97951.890625;;;17.400000;76.457031
77517;BME280;68414;53.946;27.634;2023-07-29T02:56:34;97950.000000;;;17.330000;77.334961
77517;BME280;68414;53.946;27.634;2023-07-29T02:57:34;97947.515625;;;17.389999;77.311523
77517;BME280;68414;53.946;27.634;2023-07-29T02:58:34;97942.710938;;;17.430000;77.197266
77517;BME280;68414;53.946;27.634;2023-07-29T02:59:34;97949.468750;;;17.420000;77.195312
77517;BME280;68414;53.946;27.634;2023-07-29T03:00:34;97949.796875;;;17.480000;76.997070
77517;BME280;68414;53.946;27.634;2023-07-29T03:01:34;97959.578125;;;17.320000;77.311523
77517;BME280;68414;53.946;27.634;2023-07-29T03:02:34;97952.421875;;;17.309999;77.583984
77517;BME280;68414;53.946;27.634;2023-07-29T03:03:34;97954.250000;;;17.410000;77.689453
77517;BME280;68414;53.946;27.634;2023-07-29T03:04:34;97958.515625;;;17.500000;76.834961
77517;BME280;68414;53.946;27.634;2023-07-29T03:05:34;97952.187500;;;17.450001;76.850586
77517;BME280;68414;53.946;27.634;2023-07-29T03:06:34;97955.335938;;;17.510000;76.640625
77517;BME280;68414;53.946;27.634;2023-07-29T03:07:34;97958.515625;;;17.500000;76.648438
77517;BME280;68414;53.946;27.634;2023-07-29T03:08:34;97956.265625;;;17.410000;76.963867
77517;BME280;68414;53.946;27.634;2023-07-29T03:09:34;97957.000000;;;17.450001;77.211914
77517;BME280;68414;53.946;27.634;2023-07-29T03:10:34;97959.421875;;;17.430000;77.724609
77517;BME280;68414;53.946;27.634;2023-07-29T03:11:34;97962.359375;;;17.590000;76.960938
77517;BME280;68414;53.946;27.634;2023-07-29T03:12:34;97954.906250;;;17.530001;76.807617
77517;BME280;68414;53.946;27.634;2023-07-29T03:13:34;97960.078125;;;17.540001;77.139648
77517;BME280;68414;53.946;27.634;2023-07-29T03:14:34;97956.750000;;;17.629999;77.198242
77517;BME280;68414;53.946;27.634;2023-07-29T03:15:34;97962.507812;;;17.750000;76.243164
77517;BME280;68414;53.946;27.634;2023-07-29T03:16:34;97963.523438;;;17.850000;75.884766
77517;BME280;68414;53.946;27.634;2023-07-29T03:17:34;97968.687500;;;17.860001;75.140625
77517;BME280;68414;53.946;27.634;2023-07-29T03:18:34;97965.953125;;;17.830000;75.497070
77517;BME280;68414;53.946;27.634;2023-07-29T03:19:34;97963.234375;;;17.790001;75.831055
77517;BME280;68414;53.946;27.634;2023-07-29T03:20:34;97965.406250;;;17.680000;76.439453
77517;BME280;68414;53.946;27.634;2023-07-29T03:21:34;97965.109375;;;17.629999;77.220703
77517;BME280;68414;53.946;27.634;2023-07-29T03:22:34;97966.203125;;;17.690001;77.264648
77517;BME280;68414;53.946;27.634;2023-07-29T03:23:34;97963.703125;;;17.740000;76.988281
77517;BME280;68414;53.946;27.634;2023-07-29T03:24:34;97965.765625;;;17.700001;77.212891
77517;BME280;68414;53.946;27.634;2023-07-29T03:25:34;97964.421875;;;17.780001;77.204102
77517;BME280;68414;53.946;27.634;2023-07-29T03:26:34;97970.140625;;;17.709999;76.850586
77517;BME280;68414;53.946;27.634;2023-07-29T03:27:34;97968.984375;;;17.690001;76.814453
77517;BME280;68414;53.946;27.634;2023-07-29T03:28:34;97970.679688;;;17.629999;77.428711
77517;BME280;68414;53.946;27.634;2023-07-29T03:29:34;97978.640625;;;17.610001;77.172852
77517;BME280;68414;53.946;27.634;2023-07-29T03:30:34;97985.265625;;;17.700001;76.685547
77517;BME280;68414;53.946;27.634;2023-07-29T03:31:34;97978.539062;;;17.680000;77.010742
77517;BME280;68414;53.946;27.634;2023-07-29T03:32:34;97983.578125;;;17.760000;77.157227
77517;BME280;68414;53.946;27.634;2023-07-29T03:33:34;97980.203125;;;17.879999;76.715820
77517;BME280;68414;53.946;27.634;2023-07-29T03:34:34;97979.335938;;;17.910000;76.181641
77517;BME280;68414;53.946;27.634;2023-07-29T03:35:34;97980.453125;;;17.969999;76.116211
77517;BME280;68414;53.946;27.634;2023-07-29T03:36:34;97978.250000;;;17.850000;75.984375
77517;BME280;68414;53.946;27.634;2023-07-29T03:37:34;97979.773438;;;17.900000;76.134766
77517;BME280;68414;53.946;27.634;2023-07-29T03:38:34;97983.468750;;;17.830000;76.090820
77517;BME280;68414;53.946;27.634;2023-07-29T03:39:34;97978.718750;;;17.799999;76.108398
77517;BME280;68414;53.946;27.634;2023-07-29T03:40:34;97978.578125;;;17.910000;75.929688
77517;BME280;68414;53.946;27.634;2023-07-29T03:41:34;97980.968750;;;17.889999;75.739258
77517;BME280;68414;53.946;27.634;2023-07-29T03:42:34;97977.703125;;;17.940001;75.801758
77517;BME280;68414;53.946;27.634;2023-07-29T03:43:34;97982.125000;;;17.910000;76.137695
77517;BME280;68414;53.946;27.634;2023-07-29T03:44:34;97983.351562;;;17.900000;76.521484
77517;BME280;68414;53.946;27.634;2023-07-29T03:45:34;97975.281250;;;17.959999;75.728516
77517;BME280;68414;53.946;27.634;2023-07-29T03:46:34;97979.046875;;;17.860001;76.744141
77517;BME280;68414;53.946;27.634;2023-07-29T03:47:34;97979.703125;;;17.930000;76.372070
77517;BME280;68414;53.946;27.634;2023-07-29T03:48:34;97976.867188;;;17.969999;75.509766
77517;BME280;68414;53.946;27.634;2023-07-29T03:49:34;97983.234375;;;17.969999;76.446289
77517;BME280;68414;53.946;27.634;2023-07-29T03:50:34;97975.812500;;;18.100000;75.785156
77517;BME280;68414;53.946;27.634;2023-07-29T03:51:34;97976.765625;;;18.240000;75.225586
77517;BME280;68414;53.946;27.634;2023-07-29T03:52:34;97979.203125;;;18.219999;75.068359
77517;BME280;68414;53.946;27.634;2023-07-29T03:53:34;97973.984375;;;18.240000;75.038086
77517;BME280;68414;53.946;27.634;2023-07-29T03:54:34;97977.007812;;;18.330000;74.843750
77517;BME280;68414;53.946;27.634;2023-07-29T03:55:34;97974.890625;;;18.400000;74.471680
77517;BME280;68414;53.946;27.634;2023-07-29T03:56:34;97978.515625;;;18.370001;74.950195
77517;BME280;68414;53.946;27.634;2023-07-29T03:57:34;97976.781250;;;18.469999;74.725586
77517;BME280;68414;53.946;27.634;2023-07-29T03:58:34;97980.234375;;;18.309999;75.138672
77517;BME280;68414;53.946;27.634;2023-07-29T03:59:34;97983.250000;;;18.400000;74.373047
77517;BME280;68414;53.946;27.634;2023-07-29T04:00:34;97986.453125;;;18.389999;74.203125
77517;BME280;68414;53.946;27.634;2023-07-29T04:01:34;97984.812500;;;18.410000;74.406250
77517;BME280;68414;53.946;27.634;2023-07-29T04:02:34;97977.140625;;;18.490000;73.979492
77517;BME280;68414;53.946;27.634;2023-07-29T04:03:34;97980.562500;;;18.559999;74.013672
77517;BME280;68414;53.946;27.634;2023-07-29T04:04:34;97981.500000;;;18.690001;72.921875
77517;BME280;68414;53.946;27.634;2023-07-29T04:05:34;97983.656250;;;18.620001;73.393555
77517;BME280;68414;53.946;27.634;2023-07-29T04:06:34;97985.218750;;;18.629999;73.892578
77517;BME280;68414;53.946;27.634;2023-07-29T04:07:34;97979.585938;;;18.660000;73.831055
77517;BME280;68414;53.946;27.634;2023-07-29T04:08:34;97977.203125;;;18.650000;73.774414
77517;BME280;68414;53.946;27.634;2023-07-29T04:09:34;97975.343750;;;18.780001;73.045898
77517;BME280;68414;53.946;27.634;2023-07-29T04:10:34;97975.062500;;;18.920000;71.965820
77517;BME280;68414;53.946;27.634;2023-07-29T04:11:34;97974.000000;;;18.860001;72.054688
77517;BME280;68414;53.946;27.634;2023-07-29T04:12:34;97979.000000;;;18.950001;71.273438
77517;BME280;68414;53.946;27.634;2023-07-29T04:13:34;97977.859375;;;18.920000;71.248047
77517;BME280;68414;53.946;27.634;2023-07-29T04:14:34;97981.632812;;;18.820000;71.716797
77517;BME280;68414;53.946;27.634;2023-07-29T04:15:34;97979.859375;;;18.719999;72.693359
77517;BME280;68414;53.946;27.634;2023-07-29T04:16:34;97974.359375;;;18.680000;73.030273
77517;BME280;68414;53.946;27.634;2023-07-29T04:17:34;97982.015625;;;18.639999;73.155273
77517;BME280;68414;53.946;27.634;2023-07-29T04:18:34;97980.921875;;;18.580000;73.211914
77517;BME280;68414;53.946;27.634;2023-07-29T04:19:34;97980.203125;;;18.540001;73.261719
77517;BME280;68414;53.946;27.634;2023-07-29T04:20:34;97981.796875;;;18.549999;73.030273
77517;BME280;68414;53.946;27.634;2023-07-29T04:21:34;97983.437500;;;18.530001;72.806641
77517;BME280;68414;53.946;27.634;2023-07-29T04:22:34;97984.632812;;;18.520000;73.014648
77517;BME280;68414;53.946;27.634;2023-07-29T04:23:34;97981.226562;;;18.639999;72.416992
77517;BME280;68414;53.946;27.634;2023-07-29T04:24:34;97981.359375;;;18.570000;72.668945
77517;BME280;68414;53.946;27.634;2023-07-29T04:25:34;97985.375000;;;18.559999;72.347656
77517;BME280;68414;53.946;27.634;2023-07-29T04:26:34;97983.656250;;;18.620001;72.985352
77517;BME280;68414;53.946;27.634;2023-07-29T04:27:34;97994.742188;;;18.650000;73.267578
77517;BME280;68414;53.946;27.634;2023-07-29T04:28:34;97991.375000;;;18.740000;72.575195
77517;BME280;68414;53.946;27.634;2023-07-29T04:29:34;97985.000000;;;18.730000;72.862305
77517;BME280;68414;53.946;27.634;2023-07-29T04:30:34;97991.375000;;;18.930000;70.732422
77517;BME280;68414;53.946;27.634;2023-07-29T04:31:34;97990.875000;;;18.990000;70.982422
77517;BME280;68414;53.946;27.634;2023-07-29T04:32:34;97985.578125;;;18.840000;71.611328
77517;BME280;68414;53.946;27.634;2023-07-29T04:33:34;97990.390625;;;18.840000;72.283203
77517;BME280;68414;53.946;27.634;2023-07-29T04:34:34;97993.187500;;;18.840000;72.194336
77517;BME280;68414;53.946;27.634;2023-07-29T04:35:34;97992.882812;;;18.780001;72.141602
77517;BME280;68414;53.946;27.634;2023-07-29T04:36:34;97980.218750;;;18.740000;71.648438
77517;BME280;68414;53.946;27.634;2023-07-29T04:37:34;97986.453125;;;18.809999;71.805664
77517;BME280;68414;53.946;27.634;2023-07-29T04:38:34;97983.000000;;;18.740000;72.520508
77517;BME280;68414;53.946;27.634;2023-07-29T04:39:34;97978.140625;;;18.780001;72.108398
77517;BME280;68414;53.946;27.634;2023-07-29T04:40:34;97977.640625;;;18.830000;71.619141
77517;BME280;68414;53.946;27.634;2023-07-29T04:41:34;97999.750000;;;18.740000;72.123047
77517;BME280;68414;53.946;27.634;2023-07-29T04:42:34;97988.890625;;;18.790001;72.034180
77517;BME280;68414;53.946;27.634;2023-07-29T04:43:34;97993.187500;;;18.840000;71.687500
77517;BME280;68414;53.946;27.634;2023-07-29T04:44:34;97984.726562;;;18.870001;71.637695